Time;durP1;ratioP1;P1;durP2;ratioP2;P2;SDS_P1;SDS_P2;PMS_P1;PMS_P2;Temp;Humidity;BMP_temperature;BMP_pressure;BME280_temperature;BME280_humidity;BME280_pressure;Samples;Min_cycle;Max_cycle;Signal;HPM_P1;HPM_P2
2022/10/02 00:00:39;;;;;;;9.50;3.37;;;;;;;;;;5034688;28;20193;-85
2022/10/02 00:03:11;;;;;;;8.00;2.83;;;;;;;;;;5033812;28;20253;-84
2022/10/02 00:05:39;;;;;;;9.07;2.77;;;;;;;;;;5045425;28;20388;-85
2022/10/02 00:08:12;;;;;;;6.37;2.70;;;;;;;;;;5054385;28;20234;-85
2022/10/02 00:10:43;;;;;;;6.90;2.67;;;;;;;;;;5054461;28;20182;-85
2022/10/02 00:13:14;;;;;;;11.43;3.20;;;;;;;;;;5053742;28;20690;-84
2022/10/02 00:15:42;;;;;;;11.57;3.33;;;;;;;;;;5054530;28;20206;-85
2022/10/02 00:18:11;;;;;;;8.90;3.20;;;;;;;;;;5053340;28;20728;-85
2022/10/02 00:20:43;;;;;;;9.57;2.43;;;;;;;;;;5065351;22;20230;-82
2022/10/02 00:23:15;;;;;;;6.37;2.97;;;;;;;;;;5049941;28;20229;-82
2022/10/02 00:25:46;;;;;;;7.00;2.57;;;;;;;;;;5054078;28;20206;-82
2022/10/02 00:28:18;;;;;;;4.57;2.63;;;;;;;;;;5053090;28;20230;-82
2022/10/02 00:30:56;;;;;;;10.30;3.37;;;;;;;;;;5054155;28;20233;-82
2022/10/02 00:33:28;;;;;;;7.97;3.00;;;;;;;;;;5053332;28;20229;-81
2022/10/02 00:35:59;;;;;;;8.87;3.63;;;;;;;;;;5053592;28;20210;-82
2022/10/02 00:38:36;;;;;;;10.67;3.23;;;;;;;;;;5053093;28;20238;-82
2022/10/02 00:41:17;;;;;;;10.83;3.40;;;;;;;;;;5053436;28;20666;-82
2022/10/02 00:43:48;;;;;;;8.23;2.77;;;;;;;;;;5053140;28;20240;-82
2022/10/02 00:46:31;;;;;;;8.73;3.60;;;;;;;;;;5053650;28;20191;-82
2022/10/02 00:49:17;;;;;;;7.33;2.70;;;;;;;;;;5052145;28;20238;-82
2022/10/02 00:51:48;;;;;;;6.23;2.57;;;;;;;;;;5053251;28;20186;-82
2022/10/02 00:54:25;;;;;;;6.07;2.60;;;;;;;;;;5052919;28;20244;-82
2022/10/02 00:56:55;;;;;;;8.13;2.70;;;;;;;;;;5057289;28;20217;-82
2022/10/02 00:59:35;;;;;;;10.27;3.13;;;;;;;;;;5052585;28;20241;-81
2022/10/02 01:02:06;;;;;;;9.00;3.57;;;;;;;;;;5053161;28;20669;-81
2022/10/02 01:04:34;;;;;;;5.80;2.50;;;;;;;;;;5049128;28;20608;-82
2022/10/02 01:07:01;;;;;;;9.03;2.50;;;;;;;;;;5051504;28;20206;-82
2022/10/02 01:09:30;;;;;;;8.10;2.60;;;;;;;;;;5052352;28;20248;-82
2022/10/02 01:11:57;;;;;;;6.73;2.30;;;;;;;;;;5052829;28;20209;-82
2022/10/02 01:14:32;;;;;;;7.10;2.90;;;;;;;;;;5033482;28;20241;-82
2022/10/02 01:16:59;;;;;;;9.87;2.70;;;;;;;;;;5032854;28;20509;-82
2022/10/02 01:19:30;;;;;;;9.73;3.30;;;;;;;;;;5031994;28;20254;-83
2022/10/02 01:21:59;;;;;;;9.97;3.53;;;;;;;;;;5032856;28;20693;-82
2022/10/02 01:24:30;;;;;;;6.17;2.40;;;;;;;;;;5032199;28;20230;-82
2022/10/02 01:26:59;;;;;;;7.40;2.57;;;;;;;;;;5035635;28;20206;-82
2022/10/02 01:29:26;;;;;;;12.50;2.87;;;;;;;;;;5052587;28;20247;-82
2022/10/02 01:31:53;;;;;;;7.83;2.70;;;;;;;;;;5052752;28;20201;-82
2022/10/02 01:34:20;;;;;;;8.27;2.20;;;;;;;;;;5052103;28;20234;-82
2022/10/02 01:36:47;;;;;;;7.80;2.43;;;;;;;;;;5052372;28;20233;-82
2022/10/02 01:39:15;;;;;;;7.47;2.60;;;;;;;;;;5051834;28;20240;-82
2022/10/02 01:41:43;;;;;;;8.30;2.50;;;;;;;;;;5052854;28;20210;-82
2022/10/02 01:44:12;;;;;;;5.83;2.13;;;;;;;;;;5052346;28;20229;-82
2022/10/02 01:46:42;;;;;;;8.93;2.17;;;;;;;;;;5058286;28;20260;-82
2022/10/02 01:49:24;;;;;;;4.50;2.27;;;;;;;;;;5068418;28;20241;-82
2022/10/02 01:51:59;;;;;;;5.67;2.07;;;;;;;;;;5079773;28;20201;-82
2022/10/02 01:54:33;;;;;;;6.53;2.20;;;;;;;;;;5072143;28;20248;-82
2022/10/02 01:57:06;;;;;;;8.23;2.37;;;;;;;;;;5052292;28;20241;-81
2022/10/02 01:59:42;;;;;;;8.47;2.23;;;;;;;;;;5051492;28;20241;-82
2022/10/02 02:02:14;;;;;;;8.40;2.40;;;;;;;;;;5052305;28;20206;-82
2022/10/02 02:04:45;;;;;;;10.60;2.50;;;;;;;;;;5052366;28;20238;-82
2022/10/02 02:07:16;;;;;;;8.30;2.60;;;;;;;;;;5072462;28;20561;-82
2022/10/02 02:09:46;;;;;;;9.80;2.70;;;;;;;;;;5071576;28;20240;-82
2022/10/02 02:12:15;;;;;;;7.40;2.60;;;;;;;;;;5072470;28;20193;-83
2022/10/02 02:14:47;;;;;;;6.93;2.37;;;;;;;;;;5072180;28;20240;-83
2022/10/02 02:17:18;;;;;;;9.97;2.60;;;;;;;;;;5083314;28;20226;-82
2022/10/02 02:19:47;;;;;;;9.90;2.30;;;;;;;;;;5083587;28;20252;-83
2022/10/02 02:22:18;;;;;;;9.17;2.53;;;;;;;;;;5083914;28;20209;-83
2022/10/02 02:24:48;;;;;;;7.37;2.00;;;;;;;;;;5085304;28;20233;-82
2022/10/02 02:27:18;;;;;;;6.97;2.30;;;;;;;;;;5097953;28;20288;-82
2022/10/02 02:29:48;;;;;;;3.83;2.07;;;;;;;;;;5089039;28;20247;-83
2022/10/02 02:32:17;;;;;;;9.00;3.00;;;;;;;;;;5079846;28;20584;-82
2022/10/02 02:34:46;;;;;;;10.17;2.70;;;;;;;;;;5078650;28;20236;-82
2022/10/02 02:37:17;;;;;;;5.50;2.10;;;;;;;;;;5078854;28;20240;-83
2022/10/02 02:39:47;;;;;;;9.83;2.70;;;;;;;;;;5078037;28;20302;-82
2022/10/02 02:42:15;;;;;;;5.50;2.20;;;;;;;;;;5078788;28;20212;-82
2022/10/02 02:44:45;;;;;;;5.77;2.50;;;;;;;;;;5078265;28;20232;-82
2022/10/02 02:47:18;;;;;;;11.40;2.80;;;;;;;;;;5075594;28;20209;-82
2022/10/02 02:49:48;;;;;;;9.87;2.50;;;;;;;;;;5064316;28;20236;-82
2022/10/02 02:52:17;;;;;;;6.33;2.30;;;;;;;;;;5078681;28;20205;-82
2022/10/02 02:54:47;;;;;;;6.53;2.13;;;;;;;;;;5078278;28;20237;-82
2022/10/02 02:57:15;;;;;;;9.43;2.47;;;;;;;;;;5077016;28;20248;-82
2022/10/02 02:59:45;;;;;;;8.00;2.37;;;;;;;;;;5077880;28;20374;-83
2022/10/02 03:02:13;;;;;;;6.77;2.33;;;;;;;;;;5078738;28;20208;-82
2022/10/02 03:04:41;;;;;;;6.67;2.47;;;;;;;;;;5077845;28;20243;-82
2022/10/02 03:07:12;;;;;;;8.77;2.93;;;;;;;;;;5078636;28;20292;-82
2022/10/02 03:09:40;;;;;;;6.90;2.47;;;;;;;;;;5077735;28;20255;-82
2022/10/02 03:12:12;;;;;;;9.43;2.40;;;;;;;;;;5078473;28;20213;-83
2022/10/02 03:14:48;;;;;;;14.87;2.70;;;;;;;;;;5078023;28;20716;-83
2022/10/02 03:17:22;;;;;;;10.67;2.93;;;;;;;;;;5038242;28;20646;-83
2022/10/02 03:19:51;;;;;;;9.93;2.30;;;;;;;;;;5037560;28;20608;-82
2022/10/02 03:22:20;;;;;;;9.33;2.90;;;;;;;;;;5038037;28;20211;-83
2022/10/02 03:24:50;;;;;;;10.70;2.53;;;;;;;;;;5037737;28;20234;-83
2022/10/02 03:27:21;;;;;;;9.87;3.17;;;;;;;;;;5038363;28;20205;-82
2022/10/02 03:29:51;;;;;;;9.63;2.40;;;;;;;;;;5037530;28;20234;-82
2022/10/02 03:32:20;;;;;;;6.97;2.30;;;;;;;;;;5038190;28;20203;-83
2022/10/02 03:34:48;;;;;;;9.80;3.17;;;;;;;;;;5037761;28;20313;-83
2022/10/02 03:37:15;;;;;;;8.23;2.77;;;;;;;;;;5034666;28;20202;-82
2022/10/02 03:39:43;;;;;;;8.47;2.93;;;;;;;;;;5034208;28;20318;-83
2022/10/02 03:42:11;;;;;;;7.43;2.70;;;;;;;;;;5035191;28;20222;-82
2022/10/02 03:44:38;;;;;;;8.40;2.87;;;;;;;;;;5034172;28;20231;-82
2022/10/02 03:47:05;;;;;;;7.90;2.80;;;;;;;;;;5034817;28;20205;-82
2022/10/02 03:49:34;;;;;;;11.20;3.03;;;;;;;;;;5033990;28;20239;-82
2022/10/02 03:52:02;;;;;;;4.97;2.33;;;;;;;;;;5034971;28;20211;-83
2022/10/02 03:54:31;;;;;;;11.47;3.07;;;;;;;;;;5034183;28;20242;-82
2022/10/02 03:57:03;;;;;;;9.60;3.20;;;;;;;;;;5034986;28;20207;-82
2022/10/02 03:59:34;;;;;;;9.03;2.70;;;;;;;;;;5033749;28;20245;-82
2022/10/02 04:02:02;;;;;;;7.70;2.90;;;;;;;;;;5034623;28;20199;-82
2022/10/02 04:04:32;;;;;;;9.97;2.77;;;;;;;;;;5033808;28;20257;-82
2022/10/02 04:07:03;;;;;;;11.90;3.10;;;;;;;;;;5034396;28;20210;-82
2022/10/02 04:09:32;;;;;;;8.83;3.43;;;;;;;;;;5033617;28;20289;-82
2022/10/02 04:12:01;;;;;;;9.73;3.33;;;;;;;;;;5034271;28;20242;-82
2022/10/02 04:14:30;;;;;;;10.87;3.43;;;;;;;;;;5033759;28;20709;-82
2022/10/02 04:17:01;;;;;;;7.87;3.70;;;;;;;;;;5034391;28;20199;-82
2022/10/02 04:19:30;;;;;;;10.57;3.10;;;;;;;;;;5033296;28;20588;-82
2022/10/02 04:22:00;;;;;;;10.57;3.70;;;;;;;;;;5034360;28;20211;-83
2022/10/02 04:24:30;;;;;;;5.60;3.37;;;;;;;;;;5033644;28;20258;-82
2022/10/02 04:27:01;;;;;;;6.70;3.53;;;;;;;;;;5034408;28;20281;-82
2022/10/02 04:29:32;;;;;;;6.40;3.17;;;;;;;;;;5033138;28;20244;-82
2022/10/02 04:32:06;;;;;;;13.90;3.70;;;;;;;;;;5033870;28;20211;-82
2022/10/02 04:34:33;;;;;;;10.63;4.00;;;;;;;;;;5033683;28;20254;-82
2022/10/02 04:37:06;;;;;;;7.43;3.20;;;;;;;;;;5033863;28;20369;-82
2022/10/02 04:39:45;;;;;;;12.77;4.00;;;;;;;;;;5033278;28;20242;-82
2022/10/02 04:42:19;;;;;;;12.33;4.23;;;;;;;;;;5034190;28;20206;-82
2022/10/02 04:44:54;;;;;;;8.93;3.43;;;;;;;;;;5039431;28;20238;-83
2022/10/02 04:47:32;;;;;;;9.83;3.63;;;;;;;;;;5036717;28;20198;-81
2022/10/02 04:50:06;;;;;;;10.60;3.33;;;;;;;;;;5041416;28;20230;-83
2022/10/02 04:52:42;;;;;;;10.47;3.40;;;;;;;;;;5035287;28;20187;-84
2022/10/02 04:55:25;;;;;;;13.10;3.87;;;;;;;;;;5034866;28;20197;-82
2022/10/02 04:58:01;;;;;;;8.57;3.60;;;;;;;;;;5034022;28;20238;-83
2022/10/02 05:00:31;;;;;;;8.20;3.17;;;;;;;;;;5049911;28;20236;-82
2022/10/02 05:03:06;;;;;;;9.43;3.30;;;;;;;;;;5053005;28;20252;-80
2022/10/02 05:05:42;;;;;;;11.07;3.50;;;;;;;;;;5062099;28;20596;-80
2022/10/02 05:08:19;;;;;;;10.63;2.97;;;;;;;;;;5072659;28;20231;-81
2022/10/02 05:11:00;;;;;;;13.77;3.43;;;;;;;;;;5073120;28;20241;-80
2022/10/02 05:13:36;;;;;;;11.73;3.90;;;;;;;;;;5064286;28;20234;-81
2022/10/02 05:16:26;;;;;;;14.10;3.57;;;;;;;;;;5054263;28;20212;-81
2022/10/02 05:19:14;;;;;;;7.70;3.07;;;;;;;;;;5054120;28;20238;-82
2022/10/02 05:21:53;;;;;;;9.67;3.53;;;;;;;;;;5021485;28;20210;-80
2022/10/02 05:24:29;;;;;;;14.40;6.27;;;;;;;;;;5053773;28;20233;-80
2022/10/02 05:27:06;;;;;;;7.97;2.90;;;;;;;;;;5053648;28;20210;-81
2022/10/02 05:29:39;;;;;;;8.60;3.10;;;;;;;;;;5052022;28;20250;-80
2022/10/02 05:32:14;;;;;;;6.67;3.40;;;;;;;;;;5056956;28;20216;-80
2022/10/02 05:34:50;;;;;;;7.53;3.00;;;;;;;;;;5054249;28;20237;-79
2022/10/02 05:37:25;;;;;;;6.50;3.37;;;;;;;;;;5075756;28;20189;-80
2022/10/02 05:39:55;;;;;;;5.77;3.00;;;;;;;;;;5075022;28;20771;-80
2022/10/02 05:42:27;;;;;;;6.00;2.53;;;;;;;;;;5044997;28;20203;-80
2022/10/02 05:44:57;;;;;;;11.67;3.20;;;;;;;;;;5034584;28;20237;-80
2022/10/02 05:47:27;;;;;;;6.20;2.67;;;;;;;;;;5032600;28;20215;-79
2022/10/02 05:49:56;;;;;;;9.47;2.73;;;;;;;;;;5031704;28;20231;-80
2022/10/02 05:52:25;;;;;;;9.23;3.00;;;;;;;;;;5033032;28;20214;-80
2022/10/02 05:54:54;;;;;;;7.30;3.00;;;;;;;;;;5031756;28;20230;-80
2022/10/02 05:57:28;;;;;;;8.23;2.90;;;;;;;;;;5032415;28;20206;-80
2022/10/02 06:00:05;;;;;;;10.00;3.40;;;;;;;;;;5042394;28;20347;-80
2022/10/02 06:02:37;;;;;;;8.23;2.90;;;;;;;;;;5052067;28;20260;-79
2022/10/02 06:05:07;;;;;;;8.63;3.57;;;;;;;;;;5052003;28;20662;-80
2022/10/02 06:07:35;;;;;;;8.53;3.20;;;;;;;;;;5051066;28;20214;-82
2022/10/02 06:10:05;;;;;;;8.27;2.73;;;;;;;;;;5051841;28;20260;-80
2022/10/02 06:12:37;;;;;;;8.87;2.73;;;;;;;;;;5052022;28;20209;-80
2022/10/02 06:15:07;;;;;;;6.77;2.70;;;;;;;;;;5051519;28;20225;-80
2022/10/02 06:17:37;;;;;;;5.27;2.40;;;;;;;;;;5050951;28;20218;-82
2022/10/02 06:20:06;;;;;;;5.87;2.40;;;;;;;;;;5052651;28;20241;-87
2022/10/02 06:22:36;;;;;;;7.10;2.63;;;;;;;;;;5054073;28;20263;-86
2022/10/02 06:25:06;;;;;;;7.33;2.60;;;;;;;;;;5055269;28;20201;-86
2022/10/02 06:27:39;;;;;;;4.67;2.00;;;;;;;;;;5052574;28;20670;-89
2022/10/02 06:30:09;;;;;;;6.60;2.00;;;;;;;;;;5054259;28;20226;-86
2022/10/02 06:32:38;;;;;;;4.40;1.93;;;;;;;;;;5053189;28;20289;-87
2022/10/02 06:35:11;;;;;;;5.93;2.37;;;;;;;;;;5053428;28;20217;-88
2022/10/02 06:37:46;;;;;;;2.77;1.90;;;;;;;;;;5052421;28;20213;-86
2022/10/02 06:40:19;;;;;;;5.23;1.97;;;;;;;;;;5053005;28;20229;-88
2022/10/02 06:42:53;;;;;;;4.30;2.30;;;;;;;;;;5052421;28;20186;-86
2022/10/02 06:45:30;;;;;;;7.43;2.20;;;;;;;;;;5053686;28;20197;-87
2022/10/02 06:48:02;;;;;;;4.90;1.93;;;;;;;;;;5052508;28;20287;-89
2022/10/02 06:50:37;;;;;;;3.37;2.10;;;;;;;;;;5053220;28;20713;-86
2022/10/02 06:53:11;;;;;;;5.13;2.07;;;;;;;;;;5042421;28;20694;-87
2022/10/02 06:55:45;;;;;;;7.47;2.10;;;;;;;;;;5033068;28;20202;-86
2022/10/02 06:58:20;;;;;;;3.57;2.33;;;;;;;;;;5032307;28;20245;-86
2022/10/02 07:00:50;;;;;;;3.43;1.73;;;;;;;;;;5032156;28;20598;-87
2022/10/02 07:03:35;;;;;;;5.03;1.83;;;;;;;;;;5032562;28;20230;-87
2022/10/02 07:06:08;;;;;;;2.60;1.70;;;;;;;;;;5031743;28;20985;-87
2022/10/02 07:08:41;;;;;;;2.23;1.97;;;;;;;;;;5032737;28;20234;-86
2022/10/02 07:11:17;;;;;;;4.90;2.03;;;;;;;;;;5033432;28;20202;-87
2022/10/02 07:13:56;;;;;;;7.90;2.00;;;;;;;;;;5035842;28;20268;-86
2022/10/02 07:16:28;;;;;;;4.37;1.97;;;;;;;;;;5036124;28;20198;-85
2022/10/02 07:19:20;;;;;;;5.77;2.40;;;;;;;;;;5035399;28;20234;-86
2022/10/02 07:21:52;;;;;;;3.20;2.50;;;;;;;;;;5036180;28;20246;-87
2022/10/02 07:24:35;;;;;;;6.57;1.87;;;;;;;;;;5035870;28;20242;-86
2022/10/02 07:27:04;;;;;;;3.20;1.70;;;;;;;;;;5036131;28;20195;-86
2022/10/02 07:29:38;;;;;;;2.63;1.70;;;;;;;;;;5039373;28;20249;-87
2022/10/02 07:32:16;;;;;;;5.03;1.93;;;;;;;;;;5056984;28;20201;-87
2022/10/02 07:34:50;;;;;;;4.43;2.30;;;;;;;;;;5054717;28;20260;-87
2022/10/02 07:37:22;;;;;;;3.87;2.33;;;;;;;;;;5055876;28;20670;-85
2022/10/02 07:40:05;;;;;;;4.30;2.10;;;;;;;;;;5054816;28;20237;-86
2022/10/02 07:42:44;;;;;;;3.03;1.83;;;;;;;;;;5054471;28;20659;-84
2022/10/02 07:45:19;;;;;;;4.33;2.03;;;;;;;;;;5070819;28;20212;-86
2022/10/02 07:47:54;;;;;;;4.50;2.20;;;;;;;;;;5074165;28;20193;-86
2022/10/02 07:50:27;;;;;;;2.67;2.00;;;;;;;;;;5074751;28;20220;-88
2022/10/02 07:52:59;;;;;;;3.10;2.00;;;;;;;;;;5061604;28;20230;-87
2022/10/02 07:55:26;;;;;;;3.70;1.90;;;;;;;;;;5066634;28;20212;-89
2022/10/02 07:57:56;;;;;;;3.67;1.93;;;;;;;;;;5074000;28;20719;-91
2022/10/02 08:00:28;;;;;;;3.33;2.00;;;;;;;;;;5055354;28;20222;-92
2022/10/02 08:02:58;;;;;;;2.87;1.97;;;;;;;;;;5063752;28;20234;-91
2022/10/02 08:05:26;;;;;;;4.33;2.50;;;;;;;;;;5060424;28;20210;-92
2022/10/02 08:07:56;;;;;;;4.17;2.50;;;;;;;;;;5062175;28;20234;-93
2022/10/02 08:10:25;;;;;;;4.23;2.00;;;;;;;;;;5064596;28;20225;-92
2022/10/02 08:12:56;;;;;;;4.93;1.93;;;;;;;;;;5045696;28;20264;-91
2022/10/02 08:15:24;;;;;;;2.70;1.83;;;;;;;;;;5067287;28;20193;-91
2022/10/02 08:17:54;;;;;;;2.83;2.00;;;;;;;;;;5067926;28;20202;-93
2022/10/02 08:20:26;;;;;;;2.50;2.00;;;;;;;;;;5061051;28;20240;-93
2022/10/02 08:22:56;;;;;;;5.43;2.33;;;;;;;;;;5065273;28;20256;-92
2022/10/02 08:25:26;;;;;;;4.13;2.10;;;;;;;;;;5064556;28;20213;-93
2022/10/02 08:27:56;;;;;;;4.43;2.83;;;;;;;;;;5067234;28;20229;-92
2022/10/02 08:30:23;;;;;;;3.03;2.40;;;;;;;;;;5067315;28;20226;-91
2022/10/02 08:32:55;;;;;;;4.00;2.30;;;;;;;;;;5066715;28;20213;-92
2022/10/02 08:35:31;;;;;;;4.00;2.40;;;;;;;;;;5064349;28;20209;-91
2022/10/02 08:38:09;;;;;;;3.03;2.33;;;;;;;;;;5062131;28;20233;-92
2022/10/02 08:40:56;;;;;;;3.40;2.17;;;;;;;;;;5059830;28;20303;-92
2022/10/02 08:43:34;;;;;;;2.47;2.07;;;;;;;;;;5057432;28;20240;-90
2022/10/02 08:46:24;;;;;;;2.40;2.20;;;;;;;;;;5054959;28;20205;-91
2022/10/02 08:49:06;;;;;;;3.13;2.00;;;;;;;;;;5055729;28;20255;-90
2022/10/02 08:51:44;;;;;;;2.00;1.90;;;;;;;;;;5054674;28;20206;-91
2022/10/02 08:54:31;;;;;;;2.53;2.20;;;;;;;;;;5054449;28;20234;-92
2022/10/02 08:57:05;;;;;;;2.83;2.37;;;;;;;;;;5055804;28;20202;-91
2022/10/02 09:00:01;;;;;;;3.97;2.27;;;;;;;;;;5053859;28;20248;-91
2022/10/02 09:02:47;;;;;;;4.00;3.33;;;;;;;;;;5020207;28;20214;-89
2022/10/02 09:05:29;;;;;;;2.73;2.53;;;;;;;;;;5054512;28;20836;-88
2022/10/02 09:08:18;;;;;;;4.27;2.10;;;;;;;;;;5053590;28;20229;-92
2022/10/02 09:11:08;;;;;;;6.13;4.60;;;;;;;;;;5054524;28;20253;-91
2022/10/02 09:14:09;;;;;;;4.90;1.90;;;;;;;;;;5062629;28;20237;-87
2022/10/02 09:16:40;;;;;;;1.87;1.57;;;;;;;;;;5074452;28;20190;-93
2022/10/02 09:19:19;;;;;;;2.07;1.97;;;;;;;;;;5073395;28;20237;-88
2022/10/02 09:21:53;;;;;;;9.57;7.63;;;;;;;;;;5073064;28;20598;-89
2022/10/02 09:24:42;;;;;;;6.33;3.93;;;;;;;;;;5075066;28;20261;-92
2022/10/02 09:27:35;;;;;;;2.50;2.30;;;;;;;;;;5078292;28;20194;-92
2022/10/02 09:30:26;;;;;;;3.57;2.30;;;;;;;;;;5078201;28;20236;-89
2022/10/02 09:33:06;;;;;;;2.27;1.80;;;;;;;;;;5072411;28;20316;-89
2022/10/02 09:35:52;;;;;;;1.53;1.43;;;;;;;;;;5071988;28;20189;-88
2022/10/02 09:38:48;;;;;;;1.50;1.40;;;;;;;;;;5072445;28;20282;-90
2022/10/02 09:41:37;;;;;;;4.23;1.60;;;;;;;;;;5073019;28;20209;-88
2022/10/02 09:44:21;;;;;;;1.67;1.57;;;;;;;;;;5062270;28;20234;-89
2022/10/02 09:47:00;;;;;;;1.50;1.40;;;;;;;;;;5034642;28;20260;-90
2022/10/02 09:49:42;;;;;;;1.70;1.60;;;;;;;;;;5033644;28;20245;-88
2022/10/02 09:52:34;;;;;;;1.23;1.23;;;;;;;;;;5049308;28;20204;-88
2022/10/02 09:55:14;;;;;;;1.50;1.40;;;;;;;;;;5054520;28;20214;-90
2022/10/02 09:58:04;;;;;;;1.70;1.60;;;;;;;;;;5055637;28;20213;-90
2022/10/02 10:00:53;;;;;;;1.20;1.20;;;;;;;;;;5054397;28;20234;-89
2022/10/02 10:03:35;;;;;;;1.30;1.20;;;;;;;;;;5034719;28;20237;-90
2022/10/02 10:06:18;;;;;;;1.20;1.20;;;;;;;;;;5036688;28;20604;-91
2022/10/02 10:08:59;;;;;;;1.50;1.30;;;;;;;;;;5034508;28;20242;-90
2022/10/02 10:11:39;;;;;;;4.37;1.50;;;;;;;;;;5033282;28;20191;-89
2022/10/02 10:14:20;;;;;;;1.80;1.40;;;;;;;;;;5033037;28;20241;-91
2022/10/02 10:17:12;;;;;;;1.40;1.40;;;;;;;;;;5033318;28;20199;-89
2022/10/02 10:20:04;;;;;;;1.57;1.47;;;;;;;;;;4964420;28;21075;-90
2022/10/02 10:23:05;;;;;;;2.10;1.60;;;;;;;;;;5053599;28;20204;-90
2022/10/02 10:25:50;;;;;;;2.17;2.03;;;;;;;;;;5053544;28;20235;-90
2022/10/02 10:28:36;;;;;;;2.00;1.80;;;;;;;;;;5054894;28;20605;-92
2022/10/02 10:31:23;;;;;;;1.20;1.20;;;;;;;;;;5055935;28;20194;-91
2022/10/02 10:34:02;;;;;;;1.50;1.40;;;;;;;;;;5045433;28;20229;-92
2022/10/02 10:39:46;;;;;;;1.70;1.60;;;;;;;;;;5051701;28;20264;-91
2022/10/02 10:42:32;;;;;;;1.30;1.20;;;;;;;;;;5055026;28;20296;-92
2022/10/02 10:45:18;;;;;;;1.53;1.47;;;;;;;;;;5055808;28;20223;-91
2022/10/02 10:48:00;;;;;;;2.40;1.53;;;;;;;;;;5058110;28;20540;-91
2022/10/02 10:50:37;;;;;;;2.07;1.90;;;;;;;;;;5057828;28;20225;-91
2022/10/02 10:53:21;;;;;;;2.53;2.00;;;;;;;;;;5055688;28;20229;-91
2022/10/02 10:56:06;;;;;;;4.43;3.00;;;;;;;;;;5059715;28;20224;-93
2022/10/02 10:58:46;;;;;;;5.43;3.50;;;;;;;;;;5071064;28;20285;-94
2022/10/02 11:01:17;;;;;;;3.73;2.60;;;;;;;;;;5083146;28;20225;-94
2022/10/02 11:03:59;;;;;;;1.93;1.83;;;;;;;;;;5084236;28;20609;-93
2022/10/02 11:06:49;;;;;;;2.70;2.00;;;;;;;;;;5082236;28;20209;-92
2022/10/02 11:09:34;;;;;;;2.13;1.87;;;;;;;;;;5056268;28;20237;-89
2022/10/02 11:12:11;;;;;;;3.30;1.87;;;;;;;;;;5055804;28;20198;-89
2022/10/02 11:14:48;;;;;;;4.60;1.73;;;;;;;;;;5055047;28;20236;-90
2022/10/02 11:17:46;;;;;;;1.63;1.53;;;;;;;;;;5055204;28;20194;-84
2022/10/02 11:20:23;;;;;;;1.77;1.67;;;;;;;;;;5002040;28;20232;-85
2022/10/02 11:23:05;;;;;;;1.67;1.57;;;;;;;;;;5054902;28;20713;-91
2022/10/02 11:25:46;;;;;;;1.57;1.40;;;;;;;;;;5054738;28;20685;-90
2022/10/02 11:28:25;;;;;;;1.60;1.50;;;;;;;;;;5055986;28;20245;-91
2022/10/02 11:30:59;;;;;;;2.43;2.10;;;;;;;;;;5056787;28;20570;-90
2022/10/02 11:33:47;;;;;;;2.40;2.20;;;;;;;;;;5055646;28;20233;-90
2022/10/02 11:36:22;;;;;;;2.20;2.00;;;;;;;;;;5056255;28;20244;-90
2022/10/02 11:39:17;;;;;;;1.40;1.30;;;;;;;;;;5055922;28;20241;-87
2022/10/02 11:41:59;;;;;;;1.30;1.30;;;;;;;;;;5055699;28;20257;-89
2022/10/02 11:44:33;;;;;;;2.00;1.53;;;;;;;;;;5052919;28;20316;-90
2022/10/02 11:47:08;;;;;;;1.53;1.43;;;;;;;;;;5056243;28;20190;-89
2022/10/02 11:50:00;;;;;;;1.73;1.63;;;;;;;;;;5055732;28;20248;-89
2022/10/02 11:52:46;;;;;;;1.63;1.50;;;;;;;;;;5056065;28;20193;-92
2022/10/02 11:55:29;;;;;;;1.60;1.50;;;;;;;;;;5055362;28;20222;-89
2022/10/02 11:57:59;;;;;;;2.00;1.90;;;;;;;;;;5054072;28;20255;-89
2022/10/02 12:00:46;;;;;;;1.97;1.87;;;;;;;;;;5055638;28;20230;-89
2022/10/02 12:03:20;;;;;;;2.40;2.20;;;;;;;;;;5054680;28;20237;-89
2022/10/02 12:05:52;;;;;;;2.17;1.53;;;;;;;;;;5055178;28;20194;-86
2022/10/02 12:08:23;;;;;;;1.60;1.50;;;;;;;;;;5053678;28;20229;-86
2022/10/02 12:10:53;;;;;;;1.37;1.27;;;;;;;;;;5053995;28;20637;-89
2022/10/02 12:13:29;;;;;;;1.70;1.60;;;;;;;;;;5053933;28;20226;-89
2022/10/02 12:16:00;;;;;;;1.90;1.80;;;;;;;;;;5034578;28;20205;-90
2022/10/02 12:18:36;;;;;;;5.87;2.23;;;;;;;;;;5044430;28;20232;-91
2022/10/02 12:27:01;;;;;;;2.00;1.80;;;;;;;;;;5055033;28;20288;-83
2022/10/02 12:29:46;;;;;;;2.17;1.53;;;;;;;;;;5052403;28;20281;-82
2022/10/02 12:32:21;;;;;;;1.67;1.57;;;;;;;;;;5053237;28;20701;-82
2022/10/02 12:34:52;;;;;;;1.50;1.40;;;;;;;;;;5052824;28;20257;-83
2022/10/02 12:37:23;;;;;;;1.63;1.53;;;;;;;;;;5048068;28;20199;-82
2022/10/02 12:39:56;;;;;;;1.50;1.40;;;;;;;;;;5033113;28;20243;-85
2022/10/02 12:42:44;;;;;;;1.40;1.30;;;;;;;;;;5050821;28;20206;-86
2022/10/02 12:45:28;;;;;;;1.27;1.27;;;;;;;;;;5048874;28;20694;-85
2022/10/02 12:48:08;;;;;;;1.60;1.50;;;;;;;;;;5052583;28;20229;-86
2022/10/02 12:50:53;;;;;;;1.77;1.67;;;;;;;;;;5052468;28;20230;-85
2022/10/02 12:53:36;;;;;;;1.40;1.30;;;;;;;;;;5049988;28;20232;-81
2022/10/02 12:56:07;;;;;;;1.67;1.57;;;;;;;;;;5053032;28;20205;-81
2022/10/02 12:58:41;;;;;;;3.33;1.87;;;;;;;;;;5052378;28;20234;-80
2022/10/02 13:01:17;;;;;;;1.97;1.53;;;;;;;;;;5052702;28;20214;-81
2022/10/02 13:03:59;;;;;;;1.70;1.60;;;;;;;;;;5052631;28;20324;-80
2022/10/02 13:06:39;;;;;;;1.80;1.70;;;;;;;;;;5051088;28;20210;-81
2022/10/02 13:09:16;;;;;;;2.37;2.07;;;;;;;;;;5052237;28;20238;-81
2022/10/02 13:11:50;;;;;;;1.50;1.40;;;;;;;;;;5052499;28;20205;-81
2022/10/02 13:14:33;;;;;;;1.37;1.27;;;;;;;;;;5052007;28;20233;-81
2022/10/02 13:17:06;;;;;;;1.60;1.50;;;;;;;;;;5038776;28;20276;-81
2022/10/02 13:19:36;;;;;;;1.70;1.60;;;;;;;;;;5071348;28;20241;-81
2022/10/02 13:22:11;;;;;;;1.70;1.60;;;;;;;;;;5072310;28;20229;-81
2022/10/02 13:24:44;;;;;;;1.70;1.60;;;;;;;;;;5048586;28;20237;-82
2022/10/02 13:27:17;;;;;;;1.87;1.77;;;;;;;;;;5044802;28;20551;-81
2022/10/02 13:29:51;;;;;;;1.77;1.67;;;;;;;;;;5048493;28;20269;-82
2022/10/02 13:32:30;;;;;;;4.40;1.37;;;;;;;;;;5051998;28;20288;-81
2022/10/02 13:35:06;;;;;;;1.57;1.47;;;;;;;;;;5051701;28;20573;-82
2022/10/02 13:37:39;;;;;;;1.70;1.60;;;;;;;;;;5051365;28;20673;-83
2022/10/02 13:40:16;;;;;;;2.57;1.90;;;;;;;;;;5051827;28;20221;-80
2022/10/02 13:42:51;;;;;;;1.87;1.70;;;;;;;;;;5052989;28;20237;-82
2022/10/02 13:45:22;;;;;;;2.10;1.90;;;;;;;;;;5053118;28;20543;-81
2022/10/02 13:47:57;;;;;;;1.60;1.50;;;;;;;;;;5041354;28;20191;-82
2022/10/02 13:50:28;;;;;;;1.53;1.43;;;;;;;;;;5052225;28;20283;-81
2022/10/02 13:53:04;;;;;;;2.00;1.90;;;;;;;;;;5051526;28;20229;-82
2022/10/02 13:55:33;;;;;;;1.70;1.60;;;;;;;;;;5047180;28;20210;-81
2022/10/02 13:58:10;;;;;;;1.60;1.50;;;;;;;;;;5058956;28;20233;-85
2022/10/02 14:00:50;;;;;;;1.80;1.70;;;;;;;;;;5032877;28;20230;-83
2022/10/02 14:03:23;;;;;;;2.00;1.80;;;;;;;;;;5033294;28;20230;-84
2022/10/02 14:05:53;;;;;;;1.93;1.83;;;;;;;;;;5034610;28;20187;-84
2022/10/02 14:08:31;;;;;;;2.37;1.40;;;;;;;;;;5051292;28;20639;-82
2022/10/02 14:11:04;;;;;;;2.40;2.20;;;;;;;;;;5037230;28;20847;-82
2022/10/02 14:13:36;;;;;;;3.90;2.77;;;;;;;;;;5041566;28;20241;-82
2022/10/02 14:16:12;;;;;;;4.53;2.63;;;;;;;;;;5052433;28;20714;-82
2022/10/02 14:18:55;;;;;;;3.10;2.67;;;;;;;;;;5050850;28;20232;-85
2022/10/02 14:21:26;;;;;;;2.53;2.00;;;;;;;;;;5053789;28;20226;-83
2022/10/02 14:24:03;;;;;;;3.30;2.57;;;;;;;;;;5053101;28;20234;-85
2022/10/02 14:26:38;;;;;;;1.90;1.80;;;;;;;;;;5053980;28;20197;-84
2022/10/02 14:29:16;;;;;;;6.47;2.87;;;;;;;;;;5052994;28;20243;-85
2022/10/02 14:31:59;;;;;;;1.40;1.30;;;;;;;;;;5053621;28;20528;-85
2022/10/02 14:34:48;;;;;;;1.70;1.60;;;;;;;;;;5050925;28;20291;-84
2022/10/02 14:37:31;;;;;;;2.07;1.87;;;;;;;;;;5052927;28;20218;-82
2022/10/02 14:40:04;;;;;;;1.80;1.70;;;;;;;;;;5051714;28;20248;-83
2022/10/02 14:42:39;;;;;;;1.87;1.70;;;;;;;;;;5052571;28;20240;-83
2022/10/02 14:45:21;;;;;;;1.83;1.73;;;;;;;;;;5053073;28;20236;-87
2022/10/02 14:47:58;;;;;;;2.07;1.87;;;;;;;;;;5037768;28;20217;-86
2022/10/02 14:50:41;;;;;;;1.70;1.60;;;;;;;;;;5052884;28;20241;-86
2022/10/02 14:53:18;;;;;;;2.17;1.97;;;;;;;;;;5054341;28;20241;-87
2022/10/02 14:56:01;;;;;;;2.43;1.97;;;;;;;;;;5054875;28;20580;-83
2022/10/02 14:58:34;;;;;;;3.00;2.67;;;;;;;;;;5052228;28;20229;-83
2022/10/02 15:01:12;;;;;;;3.40;2.70;;;;;;;;;;5052479;28;20690;-82
2022/10/02 15:03:49;;;;;;;4.17;2.53;;;;;;;;;;5052539;28;20243;-81
2022/10/02 15:06:23;;;;;;;5.13;3.10;;;;;;;;;;5061603;28;20190;-82
2022/10/02 15:08:53;;;;;;;2.93;2.60;;;;;;;;;;5063540;28;20229;-82
2022/10/02 15:11:25;;;;;;;2.90;2.40;;;;;;;;;;5064947;28;20217;-82
2022/10/02 15:13:58;;;;;;;5.47;3.40;;;;;;;;;;5055933;28;20705;-82
2022/10/02 15:19:17;;;;;;;2.37;1.70;;;;;;;;;;5031223;28;20288;-82
2022/10/02 15:21:49;;;;;;;2.67;2.30;;;;;;;;;;5032228;28;20234;-82
2022/10/02 15:24:34;;;;;;;2.40;1.93;;;;;;;;;;5031653;28;20254;-80
2022/10/02 15:27:07;;;;;;;2.07;1.97;;;;;;;;;;5030987;28;20357;-86
2022/10/02 15:29:39;;;;;;;2.87;2.50;;;;;;;;;;5032965;28;20270;-83
2022/10/02 15:32:11;;;;;;;6.40;3.80;;;;;;;;;;5038772;28;20194;-83
2022/10/02 15:34:45;;;;;;;1.90;1.80;;;;;;;;;;5055576;28;20238;-82
2022/10/02 15:37:17;;;;;;;3.00;2.30;;;;;;;;;;5055675;28;20216;-84
2022/10/02 15:39:51;;;;;;;5.03;2.00;;;;;;;;;;5055291;28;20242;-83